Clifty, Kentucky
Current Conditions -  °F | °C
As of 11:15 PM on Sunday 19 Oct 2014 (Local Time) from K2I0 Reporting Station
Clear Clear  
Wind Chill: 48°   Ceiling: Unl
Heat Index: 48°   Visibility: 10mi
Dew Point: 47°   Wind: 0mph
Humidity: 99%   Direction: NA
Pressure: 30.08"   Gusts: NA
Location:  37°N, 87.15°W
Report Text: K2I0 200415Z AUTO 00000KT 10SM CLR 09/09 A3008 RMK AO2 T00870085
Loading
Personal Weather Stations






























Interactive Weather Map
Tropical Storm Tracking
New forecast layout! Learn more

10-Day Weather Forecast

Advertisements
Track Severe Weather on mobile